Time;durP1;ratioP1;P1;durP2;ratioP2;P2;SDS_P1;SDS_P2;PMS_P1;PMS_P2;Temp;Humidity;BMP_temperature;BMP_pressure;BME280_temperature;BME280_humidity;BME280_pressure;Samples;Min_cycle;Max_cycle;Signal;HPM_P1;HPM_P2
2022/02/01 12:54:38;;;;;;;8.07;3.83;;;;;;;4.51;80.30;98078.03;1460848;23;20027;31
2022/02/01 15:11:54;;;;;;;4.20;2.38;;;;;;;4.43;81.30;97790.41;4952929;28;20066;-81
2022/02/01 15:14:38;;;;;;;4.07;2.63;;;;;;;4.44;81.43;97785.94;4862367;29;20029;-80
2022/02/01 15:17:27;;;;;;;6.00;2.78;;;;;;;4.01;81.13;97723.03;4878296;29;20073;-80
2022/02/01 15:19:52;;;;;;;2.22;2.03;;;;;;;4.23;81.45;97753.06;4863553;29;20038;-80
2022/02/01 15:35:18;;;;;;;2.15;1.35;;;;;;;4.18;81.17;97734.47;4921546;29;20063;-81
2022/02/01 15:57:03;;;;;;;1.23;1.13;;;;;;;4.34;81.73;97754.06;4882618;29;20320;-81
2022/02/01 16:07:26;;;;;;;0.85;0.85;;;;;;;4.60;82.72;97781.75;4934477;29;20107;-82
2022/02/01 16:12:32;;;;;;;0.70;0.70;;;;;;;4.27;82.08;97737.53;4939952;28;20035;-80
2022/02/01 16:15:33;;;;;;;2.15;0.80;;;;;;;3.98;82.46;97691.00;4954108;28;20023;-80
2022/02/01 16:18:38;;;;;;;0.80;0.80;;;;;;;4.06;82.28;97709.97;4958891;28;20027;-80
2022/02/01 16:24:35;;;;;;;0.80;0.80;;;;;;;4.22;83.11;97730.31;4938109;29;20615;-80
2022/02/01 16:27:49;;;;;;;0.80;0.80;;;;;;;4.36;83.27;97758.06;4953756;28;20023;-80
2022/02/01 16:30:39;;;;;;;1.40;0.98;;;;;;;4.64;83.54;97796.09;4955116;28;20038;-80
2022/02/01 16:36:38;;;;;;;0.90;0.88;;;;;;;4.25;83.35;97721.94;4974746;28;20082;-81
2022/02/01 16:39:17;;;;;;;1.08;1.08;;;;;;;4.23;83.78;97718.72;4967459;28;20043;-81
2022/02/01 16:42:10;;;;;;;1.02;0.90;;;;;;;4.13;83.89;97684.19;4957910;29;20066;-79
2022/02/01 16:44:36;;;;;;;1.30;1.20;;;;;;;4.03;83.81;97660.25;4941576;28;20031;-84
2022/02/01 16:47:42;;;;;;;1.13;1.13;;;;;;;4.71;84.06;97773.78;4950999;28;20066;-81
2022/02/01 16:50:42;;;;;;;2.38;1.02;;;;;;;4.32;84.44;97701.47;4976542;28;20041;-80
2022/02/01 16:56:41;;;;;;;2.80;1.38;;;;;;;4.77;83.92;97767.53;4945526;28;20094;-79
2022/02/01 17:01:43;;;;;;;1.65;1.55;;;;;;;4.56;83.69;97721.44;4965741;28;20051;-81
2022/02/01 17:04:41;;;;;;;2.72;1.60;;;;;;;4.31;84.24;97691.94;4957058;28;20114;-81
2022/02/01 17:07:06;;;;;;;2.25;2.05;;;;;;;4.54;84.52;97726.16;4911118;28;20530;-82
2022/02/01 17:09:39;;;;;;;2.53;2.33;;;;;;;4.37;84.81;97685.69;4954557;28;20031;-83
2022/02/01 17:22:02;;;;;;;5.57;3.55;;;;;;;4.63;85.35;97737.13;4947988;28;20050;-81
2022/02/01 20:07:59;;;;;;;13.50;3.05;;;;;;;4.49;84.67;97746.41;4799703;29;20047;-80
2022/02/01 20:10:28;;;;;;;17.83;3.50;;;;;;;4.49;85.41;97747.22;4791063;29;20103;-82
2022/02/01 20:12:54;;;;;;;10.60;4.47;;;;;;;4.89;84.79;97829.06;4788867;29;20066;-83
2022/02/01 20:15:20;;;;;;;19.38;4.78;;;;;;;4.88;84.59;97803.69;4787325;29;20031;-82
2022/02/01 21:28:15;;;;;;;8.60;2.00;;;;;;;4.84;82.83;97929.44;4953285;28;20058;-82
2022/02/01 21:30:41;;;;;;;12.75;2.78;;;;;;;4.92;82.92;97950.22;4949246;28;20032;-83
2022/02/01 21:33:06;;;;;;;6.65;2.42;;;;;;;4.57;83.26;97907.19;4951815;28;20053;-83
2022/02/01 21:35:37;;;;;;;7.13;2.63;;;;;;;4.15;82.84;97840.53;4954294;28;20023;-84
2022/02/01 21:38:03;;;;;;;12.13;3.30;;;;;;;4.67;82.96;97910.06;4948469;28;20049;-81
2022/02/01 21:40:29;;;;;;;10.82;2.88;;;;;;;4.51;82.81;97890.44;4949305;29;20669;-81
2022/02/01 21:42:56;;;;;;;12.93;3.10;;;;;;;4.47;83.21;97870.00;4956589;28;20122;-83
2022/02/01 21:45:24;;;;;;;16.77;3.40;;;;;;;4.42;83.20;97868.06;4941372;29;20020;-81
2022/02/01 21:47:50;;;;;;;18.20;3.28;;;;;;;4.23;83.65;97834.94;4938238;29;20088;-82
2022/02/01 21:50:16;;;;;;;21.95;3.97;;;;;;;4.68;83.75;97903.72;4955165;28;20027;-82
2022/02/01 21:52:42;;;;;;;10.05;3.72;;;;;;;4.24;83.61;97835.72;4958911;28;20031;-82
2022/02/01 21:55:10;;;;;;;15.07;3.58;;;;;;;4.68;83.26;97924.06;4962223;28;20027;-81
2022/02/01 21:57:36;;;;;;;16.45;3.30;;;;;;;4.50;83.73;97899.41;4952403;28;20035;-82
2022/02/01 22:00:03;;;;;;;17.50;3.83;;;;;;;4.70;83.34;97916.69;4948494;28;20110;-82
2022/02/01 22:02:42;;;;;;;;;;;;;;;;;;;;;
2022/02/01 22:05:13;;;;;;;11.48;3.42;;;;;;;4.67;83.34;97910.06;4954119;29;20025;-83
2022/02/01 22:07:43;;;;;;;16.25;3.78;;;;;;;4.54;83.71;97900.53;4954362;28;20031;-82
2022/02/01 22:10:15;;;;;;;15.20;3.83;;;;;;;4.36;83.48;97868.19;4945601;29;20107;-82
2022/02/01 22:12:40;;;;;;;13.27;2.90;;;;;;;4.71;83.75;97913.03;4957438;29;20059;-82
2022/02/01 22:15:08;;;;;;;19.50;4.40;;;;;;;4.64;83.37;97899.16;4955090;28;20477;-82
2022/02/01 22:17:34;;;;;;;10.25;3.13;;;;;;;4.64;83.67;97921.09;4952251;29;20034;-83
2022/02/01 22:19:59;;;;;;;7.70;2.90;;;;;;;4.64;83.43;97938.78;4960386;28;20051;-82
2022/02/01 22:22:26;;;;;;;7.05;2.25;;;;;;;4.96;83.66;97977.78;4951091;28;20027;-81
2022/02/01 22:24:53;;;;;;;10.35;2.70;;;;;;;4.57;83.54;97915.13;4951419;29;20134;-82
2022/02/01 22:27:20;;;;;;;8.02;1.85;;;;;;;4.81;83.31;97947.59;4961146;28;20031;-82
2022/02/01 22:29:46;;;;;;;6.75;2.25;;;;;;;4.31;83.45;97858.31;4962796;28;20023;-82
2022/02/01 22:32:12;;;;;;;8.40;1.90;;;;;;;4.87;83.83;97936.88;4949334;28;20550;-83
2022/02/01 22:34:39;;;;;;;8.32;2.67;;;;;;;4.51;83.35;97869.31;4938324;29;20051;-83
2022/02/01 22:37:05;;;;;;;8.10;2.20;;;;;;;4.87;83.66;97936.09;4956528;28;20027;-82
2022/02/01 22:39:30;;;;;;;9.38;2.03;;;;;;;4.86;83.97;97958.28;4965813;28;20046;-82
2022/02/01 22:41:56;;;;;;;6.95;1.90;;;;;;;4.93;83.73;97980.91;4961767;29;20043;-82
2022/02/01 22:44:26;;;;;;;7.78;1.70;;;;;;;4.88;83.55;97964.13;4946446;29;20036;-82
2022/02/01 22:46:51;;;;;;;5.88;1.50;;;;;;;4.87;84.00;97973.13;4925710;29;20027;-82
2022/02/01 22:49:16;;;;;;;7.40;1.98;;;;;;;4.90;83.68;97978.72;4948274;28;20078;-83
2022/02/01 22:51:42;;;;;;;6.90;2.13;;;;;;;4.92;83.38;97984.59;4956262;28;20524;-82
2022/02/01 22:54:07;;;;;;;4.38;2.15;;;;;;;4.90;83.74;97986.66;4948787;29;20065;-82
2022/02/01 22:56:34;;;;;;;7.20;2.15;;;;;;;4.85;83.53;97991.84;4933787;29;20043;-82
2022/02/01 22:59:00;;;;;;;9.73;1.63;;;;;;;4.90;83.48;98007.00;4936228;29;20028;-83
2022/02/01 23:01:25;;;;;;;5.28;2.13;;;;;;;4.88;84.07;97990.56;4952405;28;20031;-82
2022/02/01 23:03:51;;;;;;;7.13;1.95;;;;;;;4.85;83.46;97994.47;4932560;29;20560;-83
2022/02/01 23:06:16;;;;;;;6.63;2.17;;;;;;;4.92;83.43;98013.66;4933227;29;20040;-82
2022/02/01 23:30:10;;;;;;;15.68;3.75;;;;;;;4.17;83.61;97904.50;5385776;23;20056;-83
2022/02/01 23:35:15;;;;;;;14.45;3.30;;;;;;;4.94;83.78;98016.88;4928078;29;20028;-83
2022/02/01 23:43:31;;;;;;;12.38;3.85;;;;;;;4.92;84.04;98013.66;4926291;29;20549;-82
2022/02/01 23:48:40;;;;;;;11.73;3.88;;;;;;;4.84;84.04;97994.72;4936786;29;20042;-83
2022/02/01 23:51:07;;;;;;;13.80;3.55;;;;;;;4.93;83.71;98020.59;4911854;29;20114;-83
2022/02/01 23:53:34;;;;;;;19.85;3.88;;;;;;;4.94;84.08;98031.94;4938920;29;20026;-82
2022/02/01 23:56:05;;;;;;;20.77;3.70;;;;;;;4.89;84.32;98027.34;4931315;29;20031;-82
2022/02/01 23:58:39;;;;;;;12.30;3.60;;;;;;;4.87;83.65;98032.06;4923205;29;20028;-82
